createdAt,value
2019-03-09T00:00:56.404Z,7.81
2019-03-09T00:03:27.649Z,7.80
2019-03-09T00:05:58.907Z,7.87
2019-03-09T00:08:30.149Z,7.90
2019-03-09T00:11:01.322Z,7.96
2019-03-09T00:13:32.639Z,7.99
2019-03-09T00:16:03.937Z,8.01
2019-03-09T00:18:35.147Z,7.97
2019-03-09T00:21:06.726Z,7.95
2019-03-09T00:23:59.571Z,7.90
2019-03-09T00:26:35.539Z,7.99
2019-03-09T00:29:30.325Z,7.94
2019-03-09T00:32:04.866Z,8.00
2019-03-09T00:34:36.145Z,7.99
2019-03-09T00:37:07.529Z,7.95
2019-03-09T00:39:38.803Z,7.85
2019-03-09T00:42:10.091Z,7.76
2019-03-09T00:44:41.337Z,7.70
2019-03-09T00:47:12.738Z,7.66
2019-03-09T00:49:43.999Z,7.49
2019-03-09T00:52:15.290Z,7.40
2019-03-09T00:55:05.873Z,7.43
2019-03-09T01:00:33.053Z,7.31
2019-03-09T01:03:04.383Z,7.29
2019-03-09T01:05:35.654Z,7.25
2019-03-09T01:08:07.235Z,7.17
2019-03-09T01:10:38.526Z,7.19
2019-03-09T01:13:09.854Z,7.15
2019-03-09T01:15:41.106Z,7.17
2019-03-09T01:18:12.334Z,7.18
2019-03-09T01:20:43.591Z,7.13
2019-03-09T01:23:14.920Z,7.14
2019-03-09T01:25:46.172Z,7.12
2019-03-09T01:28:17.501Z,7.06
2019-03-09T01:30:48.730Z,7.10
2019-03-09T01:33:19.922Z,7.05
2019-03-09T01:35:51.210Z,7.05
2019-03-09T01:38:22.488Z,7.01
2019-03-09T01:40:53.725Z,6.99
2019-03-09T01:43:24.991Z,6.99
2019-03-09T01:45:56.300Z,7.03
2019-03-09T01:48:27.536Z,7.02
2019-03-09T01:50:58.785Z,6.97
2019-03-09T01:53:36.505Z,6.97
2019-03-09T01:56:02.946Z,6.96
2019-03-09T01:58:34.217Z,6.97
2019-03-09T02:01:05.543Z,6.95
2019-03-09T02:03:36.921Z,6.93
2019-03-09T02:06:08.121Z,6.89
2019-03-09T02:08:39.382Z,6.92
2019-03-09T02:11:10.561Z,6.93
2019-03-09T02:13:41.868Z,6.91
2019-03-09T02:16:13.109Z,6.91
2019-03-09T02:18:44.290Z,6.96
2019-03-09T02:21:15.530Z,6.97
2019-03-09T02:23:46.772Z,6.96
2019-03-09T02:26:18.105Z,6.98
2019-03-09T02:28:49.385Z,7.00
2019-03-09T02:31:20.683Z,6.99
2019-03-09T02:33:51.888Z,6.97
2019-03-09T02:36:23.177Z,6.98
2019-03-09T02:39:18.934Z,7.05
2019-03-09T02:41:50.192Z,7.03
2019-03-09T02:44:21.379Z,7.09
2019-03-09T02:46:52.698Z,7.10
2019-03-09T02:49:24.010Z,7.11
2019-03-09T02:51:55.265Z,7.11
2019-03-09T02:54:26.491Z,7.10
2019-03-09T02:56:57.640Z,7.14
2019-03-09T02:59:28.881Z,7.18
2019-03-09T03:02:06.458Z,7.21
2019-03-09T03:04:37.707Z,7.24
2019-03-09T03:07:09.021Z,7.22
2019-03-09T03:09:40.301Z,7.23
2019-03-09T03:12:11.545Z,7.29
2019-03-09T03:14:42.845Z,7.34
2019-03-09T03:17:14.071Z,7.35
2019-03-09T03:19:45.347Z,7.35
2019-03-09T03:22:16.614Z,7.35
2019-03-09T03:24:47.858Z,7.37
2019-03-09T03:27:19.090Z,7.39
2019-03-09T03:29:50.369Z,7.39
2019-03-09T03:32:21.602Z,7.39
2019-03-09T03:34:52.964Z,7.40
2019-03-09T03:37:24.194Z,7.42
2019-03-09T03:39:55.389Z,7.48
2019-03-09T03:42:26.788Z,7.46
2019-03-09T03:44:58.019Z,7.48
2019-03-09T03:47:29.301Z,7.52
2019-03-09T03:50:00.627Z,7.54
2019-03-09T03:52:31.931Z,7.55
2019-03-09T03:55:03.133Z,7.58
2019-03-09T03:57:34.386Z,7.56
2019-03-09T04:00:06.611Z,7.54
2019-03-09T04:02:37.848Z,7.61
2019-03-09T04:05:09.437Z,7.60
2019-03-09T04:07:42.026Z,7.62
2019-03-09T04:10:13.789Z,7.67
2019-03-09T04:12:45.463Z,7.67
2019-03-09T04:15:16.857Z,7.67
2019-03-09T04:17:48.173Z,7.67
2019-03-09T04:20:19.413Z,7.70
2019-03-09T04:22:50.688Z,7.72
2019-03-09T04:25:21.996Z,7.73
2019-03-09T04:27:53.315Z,7.72
2019-03-09T04:30:24.546Z,7.77
2019-03-09T04:32:55.759Z,7.79
2019-03-09T04:35:27.041Z,7.84
2019-03-09T04:37:58.277Z,7.80
2019-03-09T04:40:29.607Z,7.80
2019-03-09T04:43:00.882Z,7.88
2019-03-09T04:45:32.097Z,7.88
2019-03-09T04:48:03.348Z,7.93
2019-03-09T04:50:34.563Z,7.94
2019-03-09T04:53:05.822Z,7.96
2019-03-09T04:55:37.050Z,7.98
2019-03-09T04:58:08.262Z,7.97
2019-03-09T05:00:39.682Z,8.01
2019-03-09T05:03:10.966Z,8.02
2019-03-09T05:05:42.280Z,7.95
2019-03-09T05:08:35.744Z,7.95
2019-03-09T05:11:15.909Z,8.02
2019-03-09T05:14:16.096Z,7.98
2019-03-09T05:16:47.350Z,7.94
2019-03-09T05:19:18.630Z,7.81
2019-03-09T05:21:49.878Z,7.77
2019-03-09T05:24:21.309Z,7.79
2019-03-09T05:32:17.713Z,7.72
2019-03-09T05:34:48.841Z,7.52
2019-03-09T05:37:20.105Z,7.59
2019-03-09T05:39:51.351Z,7.58
2019-03-09T05:42:22.644Z,7.52
2019-03-09T05:44:53.890Z,7.38
2019-03-09T05:47:25.122Z,7.33
2019-03-09T05:49:56.283Z,7.33
2019-03-09T05:52:37.706Z,7.35
2019-03-09T05:55:21.477Z,7.39
2019-03-09T05:57:52.707Z,7.37
2019-03-09T06:00:24.058Z,7.25
2019-03-09T06:02:55.302Z,7.27
2019-03-09T06:05:38.638Z,7.24
2019-03-09T06:08:10.545Z,7.32
2019-03-09T06:10:41.764Z,7.28
2019-03-09T06:13:12.958Z,7.32
2019-03-09T06:15:44.119Z,7.44
2019-03-09T06:18:15.369Z,7.49
2019-03-09T06:20:46.630Z,7.52
2019-03-09T06:23:17.844Z,7.54
2019-03-09T06:25:49.145Z,7.53
2019-03-09T06:28:20.409Z,7.50
2019-03-09T06:30:51.657Z,7.58
2019-03-09T06:33:31.379Z,7.70
2019-03-09T06:36:59.391Z,7.86
2019-03-09T06:39:40.785Z,7.90
2019-03-09T06:42:33.055Z,7.98
2019-03-09T06:45:04.483Z,8.03
2019-03-09T06:47:35.698Z,8.07
2019-03-09T06:50:08.220Z,8.00
2019-03-09T06:52:39.515Z,8.02
2019-03-09T06:55:12.145Z,8.12
2019-03-09T06:57:43.534Z,8.17
2019-03-09T07:00:39.478Z,8.24
2019-03-09T07:03:11.473Z,8.30
2019-03-09T07:05:42.772Z,8.37
2019-03-09T07:08:14.001Z,8.40
2019-03-09T07:10:45.278Z,8.48
2019-03-09T07:13:16.652Z,8.39
2019-03-09T07:15:48.721Z,8.45
2019-03-09T07:18:30.405Z,8.41
2019-03-09T07:21:01.597Z,8.48
2019-03-09T07:23:32.780Z,8.49
2019-03-09T07:26:04.029Z,8.54
2019-03-09T07:28:35.211Z,8.48
2019-03-09T07:31:06.473Z,8.54
2019-03-09T07:33:37.679Z,8.55
2019-03-09T07:36:08.960Z,8.64
2019-03-09T07:38:43.137Z,8.72
2019-03-09T07:41:14.271Z,8.73
2019-03-09T07:43:45.542Z,8.71
2019-03-09T07:46:16.934Z,8.74
2019-03-09T07:48:48.066Z,8.77
2019-03-09T07:51:19.326Z,8.85
2019-03-09T07:53:50.601Z,8.90
2019-03-09T07:56:21.837Z,8.92
2019-03-09T07:58:53.058Z,8.91
2019-03-09T08:01:24.362Z,9.04
2019-03-09T08:03:55.720Z,9.11
2019-03-09T08:06:27.086Z,9.05
2019-03-09T08:08:58.378Z,9.09
2019-03-09T08:11:29.620Z,9.12
2019-03-09T08:14:00.888Z,9.17
2019-03-09T08:16:35.808Z,9.22
2019-03-09T08:19:05.165Z,9.27
2019-03-09T08:21:36.457Z,9.29
2019-03-09T08:24:07.716Z,9.30
2019-03-09T08:26:57.836Z,9.35
2019-03-09T08:29:29.121Z,9.40
2019-03-09T08:32:00.847Z,9.50
2019-03-09T08:34:32.014Z,9.48
2019-03-09T08:37:03.324Z,9.49
2019-03-09T08:39:34.513Z,9.52
2019-03-09T08:42:05.766Z,9.53
2019-03-09T08:44:37.044Z,9.58
2019-03-09T08:47:08.322Z,9.54
2019-03-09T08:49:39.552Z,9.63
2019-03-09T08:52:10.825Z,9.72
2019-03-09T08:54:42.084Z,9.66
2019-03-09T08:57:13.421Z,9.67
2019-03-09T08:59:44.782Z,9.70
2019-03-09T09:02:16.062Z,9.77
2019-03-09T09:04:47.444Z,9.96
2019-03-09T09:07:18.735Z,10.06
2019-03-09T09:09:50.050Z,10.23
2019-03-09T09:12:21.292Z,10.19
2019-03-09T09:14:52.602Z,10.27
2019-03-09T09:17:23.782Z,10.32
2019-03-09T09:19:55.118Z,10.38
2019-03-09T09:22:26.417Z,10.42
2019-03-09T09:24:57.709Z,10.47
2019-03-09T09:27:28.914Z,10.57
2019-03-09T09:30:00.360Z,10.54
2019-03-09T09:32:32.871Z,10.75
2019-03-09T09:35:04.108Z,10.65
2019-03-09T09:37:35.305Z,10.61
2019-03-09T09:40:08.959Z,10.60
2019-03-09T09:42:40.154Z,10.60
2019-03-09T09:45:13.096Z,10.57
2019-03-09T09:47:44.387Z,10.67
2019-03-09T09:50:16.356Z,10.73
2019-03-09T09:52:58.771Z,10.85
2019-03-09T09:55:49.065Z,10.58
2019-03-09T09:58:20.316Z,10.56
2019-03-09T10:00:51.505Z,10.45
2019-03-09T10:03:22.711Z,10.46
2019-03-09T10:05:54.065Z,10.43
2019-03-09T10:08:25.368Z,10.56
2019-03-09T10:11:00.546Z,10.71
2019-03-09T10:13:31.827Z,10.86
2019-03-09T10:16:03.040Z,10.95
2019-03-09T10:18:34.339Z,11.05
2019-03-09T10:21:05.640Z,11.13
2019-03-09T10:23:37.055Z,11.18
2019-03-09T10:26:08.417Z,11.12
2019-03-09T10:28:39.869Z,11.12
2019-03-09T10:31:11.159Z,11.19
2019-03-09T10:33:42.457Z,11.17
2019-03-09T10:36:13.838Z,11.25
2019-03-09T10:38:45.025Z,11.27
2019-03-09T10:41:16.346Z,11.07
2019-03-09T10:43:50.007Z,11.16
2019-03-09T10:46:21.313Z,11.20
2019-03-09T10:48:53.528Z,11.08
2019-03-09T10:51:24.761Z,11.24
2019-03-09T10:53:56.063Z,11.30
2019-03-09T10:56:27.357Z,11.41
2019-03-09T10:58:58.729Z,11.42
2019-03-09T11:01:29.970Z,11.44
2019-03-09T11:04:01.552Z,11.51
2019-03-09T11:06:32.917Z,11.57
2019-03-09T11:09:05.331Z,11.64
2019-03-09T11:11:36.615Z,11.73
2019-03-09T11:14:08.039Z,11.70
2019-03-09T11:16:43.107Z,11.68
2019-03-09T11:19:14.523Z,11.50
2019-03-09T11:21:45.835Z,11.54
2019-03-09T11:24:17.089Z,11.57
2019-03-09T11:26:48.563Z,11.56
2019-03-09T11:29:19.857Z,11.59
2019-03-09T11:31:51.192Z,11.76
2019-03-09T11:34:22.675Z,12.17
2019-03-09T11:36:54.074Z,12.16
2019-03-09T11:39:25.457Z,12.03
2019-03-09T11:41:56.910Z,11.90
2019-03-09T11:44:28.435Z,12.09
2019-03-09T11:47:00.023Z,12.22
2019-03-09T11:49:31.424Z,12.11
2019-03-09T11:52:02.806Z,12.05
2019-03-09T11:54:34.257Z,11.96
2019-03-09T11:57:05.830Z,12.19
2019-03-09T11:59:37.382Z,12.46
2019-03-09T12:02:08.716Z,12.70
2019-03-09T12:04:46.919Z,12.63
2019-03-09T12:07:13.231Z,12.47
2019-03-09T12:09:44.581Z,12.50
2019-03-09T12:12:16.075Z,12.76
2019-03-09T12:14:47.571Z,12.51
2019-03-09T12:17:18.866Z,12.66
2019-03-09T12:19:50.323Z,12.71
2019-03-09T12:22:21.723Z,12.65
2019-03-09T12:24:55.348Z,12.67
2019-03-09T12:27:26.700Z,12.47
2019-03-09T12:29:58.074Z,12.43
2019-03-09T12:32:29.463Z,12.76
2019-03-09T12:35:00.925Z,12.83
2019-03-09T12:37:32.265Z,12.58
2019-03-09T12:40:16.610Z,12.71
2019-03-09T12:42:49.879Z,12.67
2019-03-09T12:45:26.835Z,12.88
2019-03-09T12:48:11.044Z,13.09
2019-03-09T12:53:37.990Z,12.81
2019-03-09T12:56:09.689Z,12.75
2019-03-09T12:58:41.074Z,12.91
2019-03-09T13:01:17.501Z,12.92
2019-03-09T13:03:48.875Z,13.17
2019-03-09T13:06:25.868Z,13.04
2019-03-09T13:08:57.427Z,12.94
2019-03-09T13:11:28.815Z,13.02
2019-03-09T13:14:00.087Z,13.42
2019-03-09T13:16:31.412Z,13.33
2019-03-09T13:19:02.713Z,13.46
2019-03-09T13:21:34.187Z,13.19
2019-03-09T13:24:05.510Z,12.86
2019-03-09T13:26:36.835Z,12.46
2019-03-09T13:29:08.617Z,12.18
2019-03-09T13:31:39.804Z,11.99
2019-03-09T13:34:12.382Z,11.71
2019-03-09T13:36:43.700Z,11.54
2019-03-09T13:39:15.147Z,11.04
2019-03-09T13:41:46.382Z,10.60
2019-03-09T13:44:23.264Z,10.04
2019-03-09T13:46:54.685Z,9.94
2019-03-09T13:49:26.581Z,9.84
2019-03-09T13:51:59.537Z,9.77
2019-03-09T13:54:30.832Z,9.69
2019-03-09T13:57:02.184Z,9.58
2019-03-09T13:59:36.166Z,9.53
2019-03-09T14:02:07.502Z,9.37
2019-03-09T14:04:39.065Z,9.37
2019-03-09T14:07:10.559Z,9.40
2019-03-09T14:09:47.922Z,9.40
2019-03-09T14:12:19.364Z,9.44
2019-03-09T14:14:50.803Z,9.48
2019-03-09T14:17:22.173Z,9.50
2019-03-09T14:22:47.059Z,9.40
2019-03-09T14:25:24.246Z,9.51
2019-03-09T14:27:58.674Z,9.62
2019-03-09T14:30:30.086Z,9.76
2019-03-09T14:33:01.351Z,9.96
2019-03-09T14:35:32.637Z,10.12
2019-03-09T14:38:04.070Z,10.06
2019-03-09T14:40:35.372Z,9.98
2019-03-09T14:43:06.798Z,10.05
2019-03-09T14:45:38.118Z,10.05
2019-03-09T14:48:09.347Z,9.78
2019-03-09T14:50:40.635Z,9.65
2019-03-09T14:53:11.930Z,9.61
2019-03-09T14:55:43.318Z,9.61
2019-03-09T14:58:14.681Z,9.68
2019-03-09T15:00:46.037Z,9.68
2019-03-09T15:03:17.343Z,9.60
2019-03-09T15:05:48.627Z,9.58
2019-03-09T15:08:20.278Z,9.65
2019-03-09T15:11:01.759Z,9.95
2019-03-09T15:13:45.233Z,10.14
2019-03-09T15:16:18.210Z,10.15
2019-03-09T15:18:49.608Z,10.04
2019-03-09T15:21:20.999Z,10.04
2019-03-09T15:23:52.306Z,9.91
2019-03-09T15:26:23.846Z,9.76
2019-03-09T15:28:55.103Z,9.53
2019-03-09T15:31:26.395Z,9.39
2019-03-09T15:33:58.409Z,9.49
2019-03-09T15:36:29.694Z,8.93
2019-03-09T15:39:01.052Z,8.12
2019-03-09T15:41:32.613Z,7.70
2019-03-09T15:44:03.947Z,7.43
2019-03-09T15:46:35.284Z,7.35
2019-03-09T15:49:25.673Z,7.42
2019-03-09T15:51:57.450Z,7.49
2019-03-09T15:54:30.222Z,7.65
2019-03-09T15:57:23.729Z,7.86
2019-03-09T15:59:55.178Z,7.97
2019-03-09T16:02:26.881Z,7.96
2019-03-09T16:04:58.355Z,7.92
2019-03-09T16:07:29.980Z,7.91
2019-03-09T16:10:03.977Z,8.05
2019-03-09T16:12:35.494Z,6.98
2019-03-09T16:15:34.566Z,6.03
2019-03-09T16:17:55.564Z,5.87
2019-03-09T16:20:34.833Z,6.01
2019-03-09T16:23:08.917Z,6.27
2019-03-09T16:25:40.771Z,6.34
2019-03-09T16:28:11.900Z,6.43
2019-03-09T16:30:43.272Z,6.52
2019-03-09T16:33:14.622Z,6.57
2019-03-09T16:35:45.897Z,6.60
2019-03-09T16:38:17.106Z,6.68
2019-03-09T16:40:48.386Z,6.74
2019-03-09T16:43:19.615Z,6.76
2019-03-09T16:45:51.005Z,6.73
2019-03-09T16:48:23.577Z,6.67
2019-03-09T16:50:54.909Z,6.58
2019-03-09T16:53:26.548Z,6.52
2019-03-09T16:55:57.825Z,6.50
2019-03-09T16:58:33.183Z,6.51
2019-03-09T17:01:04.465Z,6.55
2019-03-09T17:03:35.701Z,6.50
2019-03-09T17:06:06.994Z,6.42
2019-03-09T17:08:38.299Z,6.48
2019-03-09T17:11:09.521Z,6.50
2019-03-09T17:13:40.802Z,6.47
2019-03-09T17:16:12.132Z,6.50
2019-03-09T17:18:43.497Z,6.46
2019-03-09T17:21:14.743Z,6.45
2019-03-09T17:23:46.016Z,6.55
2019-03-09T17:26:17.374Z,6.44
2019-03-09T17:28:48.612Z,6.47
2019-03-09T17:31:19.991Z,6.48
2019-03-09T17:33:51.292Z,6.59
2019-03-09T17:36:22.648Z,6.70
2019-03-09T17:38:53.964Z,6.80
2019-03-09T17:41:25.267Z,6.67
2019-03-09T17:43:56.500Z,6.79
2019-03-09T17:46:27.771Z,6.79
2019-03-09T17:48:59.103Z,6.89
2019-03-09T17:51:30.448Z,6.94
2019-03-09T17:54:01.698Z,6.91
2019-03-09T17:56:33.101Z,7.03
2019-03-09T17:59:04.391Z,6.96
2019-03-09T18:01:35.705Z,6.98
2019-03-09T18:04:06.998Z,7.05
2019-03-09T18:06:38.646Z,7.06
2019-03-09T18:09:10.307Z,7.08
2019-03-09T18:11:41.651Z,7.08
2019-03-09T18:14:13.082Z,7.09
2019-03-09T18:16:52.519Z,7.16
2019-03-09T18:19:17.482Z,7.17
2019-03-09T18:21:48.820Z,7.09
2019-03-09T18:24:20.238Z,7.12
2019-03-09T18:26:53.227Z,7.05
2019-03-09T18:29:24.578Z,7.03
2019-03-09T18:31:56.171Z,7.06
2019-03-09T18:34:27.451Z,7.02
2019-03-09T18:36:58.714Z,7.10
2019-03-09T18:39:29.899Z,7.09
2019-03-09T18:42:01.346Z,7.03
2019-03-09T18:44:32.597Z,6.97
2019-03-09T18:47:03.879Z,7.01
2019-03-09T18:49:35.560Z,6.97
2019-03-09T18:52:06.954Z,7.00
2019-03-09T18:54:38.297Z,7.05
2019-03-09T18:57:09.551Z,6.98
2019-03-09T18:59:40.900Z,6.94
2019-03-09T19:02:12.208Z,6.94
2019-03-09T19:04:43.531Z,6.92
2019-03-09T19:07:18.189Z,6.86
2019-03-09T19:09:49.638Z,6.82
2019-03-09T19:12:22.637Z,6.85
2019-03-09T19:14:53.972Z,6.88
2019-03-09T19:17:25.238Z,6.79
2019-03-09T19:19:56.595Z,6.67
2019-03-09T19:22:27.984Z,6.59
2019-03-09T19:24:59.225Z,6.49
2019-03-09T19:27:30.412Z,6.30
2019-03-09T19:30:01.661Z,6.20
2019-03-09T19:32:33.168Z,6.10
2019-03-09T19:35:07.555Z,6.11
2019-03-09T19:37:39.920Z,6.04
2019-03-09T19:40:13.653Z,6.02
2019-03-09T19:42:45.189Z,6.08
2019-03-09T19:45:16.930Z,5.96
2019-03-09T19:47:48.676Z,5.90
2019-03-09T19:50:20.425Z,5.89
2019-03-09T19:52:51.818Z,5.96
2019-03-09T19:55:23.152Z,6.14
2019-03-09T19:57:54.748Z,6.16
2019-03-09T20:00:26.044Z,6.22
2019-03-09T20:02:57.422Z,6.11
2019-03-09T20:05:28.763Z,6.14
2019-03-09T20:08:00.122Z,6.11
2019-03-09T20:16:10.359Z,5.82
2019-03-09T20:18:41.695Z,5.91
2019-03-09T20:21:13.043Z,5.77
2019-03-09T20:23:53.016Z,5.79
2019-03-09T20:26:24.377Z,5.82
2019-03-09T20:28:57.524Z,5.95
2019-03-09T20:31:28.891Z,6.39
2019-03-09T20:34:00.036Z,6.30
2019-03-09T20:36:31.373Z,6.49
2019-03-09T20:39:02.725Z,6.60
2019-03-09T20:41:34.196Z,6.70
2019-03-09T20:44:05.580Z,6.71
2019-03-09T20:46:41.823Z,6.81
2019-03-09T20:49:09.761Z,6.94
2019-03-09T20:51:41.137Z,7.19
2019-03-09T20:54:12.412Z,7.15
2019-03-09T20:56:44.904Z,7.16
2019-03-09T20:59:16.229Z,7.16
2019-03-09T21:01:47.557Z,7.25
2019-03-09T21:04:18.900Z,7.33
2019-03-09T21:06:50.165Z,7.39
2019-03-09T21:09:21.533Z,7.29
2019-03-09T21:11:52.816Z,7.23
2019-03-09T21:14:26.181Z,7.21
2019-03-09T21:16:59.667Z,7.15
2019-03-09T21:19:30.365Z,7.19
2019-03-09T21:22:01.695Z,7.17
2019-03-09T21:24:33.005Z,7.19
2019-03-09T21:27:04.204Z,7.12
2019-03-09T21:29:35.398Z,7.08
2019-03-09T21:32:06.600Z,7.22
2019-03-09T21:34:56.869Z,7.18
2019-03-09T21:37:47.267Z,6.97
2019-03-09T21:40:18.586Z,6.75
2019-03-09T21:42:49.979Z,6.64
2019-03-09T21:45:21.390Z,6.81
2019-03-09T21:47:52.636Z,6.94
2019-03-09T21:50:24.095Z,7.02
2019-03-09T21:52:55.345Z,6.98
2019-03-09T21:55:26.624Z,7.02
2019-03-09T21:57:57.803Z,6.94
2019-03-09T22:00:29.119Z,6.99
2019-03-09T22:03:00.339Z,7.09
2019-03-09T22:05:31.520Z,7.13
2019-03-09T22:08:02.755Z,7.14
2019-03-09T22:10:34.033Z,7.16
2019-03-09T22:13:05.356Z,7.22
2019-03-09T22:15:36.604Z,7.22
2019-03-09T22:18:07.919Z,7.32
2019-03-09T22:20:39.119Z,7.34
2019-03-09T22:23:10.400Z,7.34
2019-03-09T22:25:41.637Z,7.36
2019-03-09T22:28:12.984Z,7.42
2019-03-09T22:30:44.217Z,7.36
2019-03-09T22:33:15.496Z,7.33
2019-03-09T22:35:46.772Z,7.32
2019-03-09T22:38:18.120Z,7.15
2019-03-09T22:40:49.470Z,7.12
2019-03-09T22:43:20.812Z,7.03
2019-03-09T22:45:52.099Z,7.04
2019-03-09T22:48:23.355Z,6.92
2019-03-09T22:50:54.722Z,6.90
2019-03-09T22:53:25.929Z,6.73
2019-03-09T22:55:57.328Z,6.86
2019-03-09T22:58:28.571Z,6.92
2019-03-09T23:00:59.867Z,6.92
2019-03-09T23:03:31.169Z,7.02
2019-03-09T23:11:40.536Z,7.02
2019-03-09T23:14:11.844Z,7.10
2019-03-09T23:16:43.077Z,7.03
2019-03-09T23:19:14.200Z,7.13
2019-03-09T23:21:45.461Z,7.20
2019-03-09T23:24:16.584Z,7.24
2019-03-09T23:26:47.870Z,7.29
2019-03-09T23:29:19.107Z,7.23
2019-03-09T23:31:50.380Z,7.27
2019-03-09T23:34:21.491Z,7.44
2019-03-09T23:36:52.721Z,7.34
2019-03-09T23:39:24.008Z,7.17
2019-03-09T23:41:55.277Z,7.16
2019-03-09T23:44:26.556Z,7.24
2019-03-09T23:46:57.835Z,7.47
2019-03-09T23:49:29.190Z,7.50
2019-03-09T23:52:00.478Z,7.46
2019-03-09T23:54:31.705Z,7.39
2019-03-09T23:57:02.947Z,7.48
2019-03-09T23:59:34.532Z,7.59
